aviador You're here:

CYED Decoded Metar

EDMONTON in AB, CANADA
Report Time2017-11-24 03:00:00
UTC Time2017-11-24 03:50:04
Flight Rules vfr VFR
Wind250° at 10 kt
W.Rank250° ranks 3
Current wind is above 250° avg. (6.0)
Visibility9999 m
Phenomena:N/A
Clouds:N/A
Expected CloudBase > 2,000 ft AGL from Temp-Dew spread
CeilingNone
Temp03°C (ISA -8)
Dew Point-2°C (70% RH)
AAT-2.9°C
QNH993 hPa
Density Alt2,116 ft
Elevation2,257 ft
Report Wrong Elevation
Raw Report
CYED 240300Z AUTO 25010KT 9SM CLR 03/M02 A2931 RMK SLP955=

Extra information for CYED:More info

Metar Taf Metar & Taf Last 4 Metars F.Rules Stats Wind Profile Meteogram Temp Stats Airport Information Weather charts Add Link Nearby VenuesMetar ALERT Operation Metar Decoded Social comments